Time;durP1;ratioP1;P1;durP2;ratioP2;P2;SDS_P1;SDS_P2;PMS_P1;PMS_P2;Temp;Humidity;BMP_temperature;BMP_pressure;BME280_temperature;BME280_humidity;BME280_pressure;Samples;Min_cycle;Max_cycle;Signal;HPM_P1;HPM_P2
2023/08/07 00:00:34;;;;;;;4.40;2.27;;;16.50;99.90;;;;;;5094716;28;20039;-71
2023/08/07 00:03:00;;;;;;;6.20;2.70;;;16.50;99.90;;;;;;5094838;28;20418;-71
2023/08/07 00:05:26;;;;;;;6.37;2.07;;;16.50;99.90;;;;;;5094242;28;20048;-71
2023/08/07 00:07:51;;;;;;;3.97;1.87;;;16.50;99.90;;;;;;5094528;28;20125;-71
2023/08/07 00:10:17;;;;;;;4.67;2.20;;;16.50;99.90;;;;;;5094625;28;20040;-71
2023/08/07 00:12:43;;;;;;;5.20;2.10;;;16.40;99.90;;;;;;5094350;28;20101;-71
2023/08/07 00:15:10;;;;;;;5.77;2.43;;;16.40;99.90;;;;;;5094592;28;20113;-71
2023/08/07 00:17:36;;;;;;;6.30;2.13;;;16.40;99.90;;;;;;5094291;28;20480;-71
2023/08/07 00:20:02;;;;;;;4.43;1.90;;;16.40;99.90;;;;;;5094503;28;20051;-71
2023/08/07 00:22:28;;;;;;;4.97;2.00;;;16.40;99.90;;;;;;5094279;28;20036;-71
2023/08/07 00:24:53;;;;;;;7.37;2.10;;;16.40;99.90;;;;;;5094357;28;20145;-71
2023/08/07 00:27:19;;;;;;;6.33;2.20;;;16.40;99.90;;;;;;5092956;28;20488;-71
2023/08/07 00:29:45;;;;;;;8.67;2.70;;;16.40;99.90;;;;;;5094093;28;20052;-71
2023/08/07 00:32:10;;;;;;;11.13;3.17;;;16.40;99.90;;;;;;5094323;28;20044;-73
2023/08/07 00:34:36;;;;;;;12.77;3.67;;;16.40;99.90;;;;;;5094077;28;20364;-73
2023/08/07 00:37:02;;;;;;;11.53;3.93;;;16.30;99.90;;;;;;5094217;28;20083;-72
2023/08/07 00:39:27;;;;;;;16.07;3.60;;;16.30;99.90;;;;;;5093946;28;20036;-72
2023/08/07 00:41:54;;;;;;;12.20;3.40;;;16.30;99.90;;;;;;5093089;28;20051;-72
2023/08/07 00:44:19;;;;;;;13.27;3.33;;;16.20;99.90;;;;;;5094274;28;20036;-72
2023/08/07 00:46:46;;;;;;;13.87;3.20;;;16.20;99.90;;;;;;5075957;28;20108;-72
2023/08/07 00:49:12;;;;;;;12.60;2.70;;;16.20;99.90;;;;;;5094132;28;20123;-71
2023/08/07 00:51:39;;;;;;;11.60;3.10;;;16.20;99.90;;;;;;5092596;28;20047;-72
2023/08/07 00:54:07;;;;;;;16.27;3.37;;;16.20;99.90;;;;;;5094107;28;20047;-71
2023/08/07 00:56:33;;;;;;;13.43;3.90;;;16.10;99.90;;;;;;5093772;28;20480;-72
2023/08/07 00:59:00;;;;;;;10.93;2.90;;;16.10;99.90;;;;;;5094139;28;20048;-71
2023/08/07 01:01:26;;;;;;;8.57;2.53;;;16.10;99.90;;;;;;5093300;28;20503;-72
2023/08/07 01:03:52;;;;;;;13.37;3.73;;;16.00;99.90;;;;;;5093865;28;20069;-71
2023/08/07 01:06:18;;;;;;;9.80;2.83;;;16.00;99.90;;;;;;5093792;28;20465;-71
2023/08/07 01:08:50;;;;;;;14.33;3.37;;;16.00;99.90;;;;;;5093649;28;20047;-71
2023/08/07 01:11:46;;;;;;;13.30;2.67;;;15.90;99.90;;;;;;5093446;28;20511;-71
2023/08/07 01:14:18;;;;;;;12.37;3.17;;;15.90;99.90;;;;;;5093944;28;20031;-71
2023/08/07 01:16:59;;;;;;;11.93;3.00;;;15.90;99.90;;;;;;5093401;28;20360;-71
2023/08/07 01:19:27;;;;;;;14.13;2.90;;;15.80;99.90;;;;;;5093797;28;20040;-71
2023/08/07 01:22:12;;;;;;;11.13;3.00;;;15.80;99.90;;;;;;5093523;28;20051;-71
2023/08/07 01:24:40;;;;;;;16.73;3.80;;;15.80;99.90;;;;;;5075657;28;20047;-71
2023/08/07 01:27:37;;;;;;;12.10;2.97;;;15.80;99.90;;;;;;5093364;28;20055;-71
2023/08/07 01:30:38;;;;;;;13.67;3.47;;;15.70;99.90;;;;;;5084359;28;20052;-71
2023/08/07 01:33:34;;;;;;;9.40;2.80;;;15.70;99.90;;;;;;5092829;28;20181;-71
2023/08/07 01:36:05;;;;;;;14.63;3.50;;;15.60;99.90;;;;;;5093612;28;20048;-71
2023/08/07 01:38:31;;;;;;;12.63;3.33;;;15.60;99.90;;;;;;5092901;28;20036;-72
2023/08/07 01:40:58;;;;;;;13.87;3.20;;;15.60;99.90;;;;;;5093311;28;20499;-71
2023/08/07 01:43:24;;;;;;;12.80;2.87;;;15.50;99.90;;;;;;5093504;28;20476;-71
2023/08/07 01:45:50;;;;;;;11.07;2.70;;;15.50;99.90;;;;;;5092133;28;20451;-71
2023/08/07 01:48:15;;;;;;;11.40;3.37;;;15.50;99.90;;;;;;5092860;28;20531;-71
2023/08/07 01:50:41;;;;;;;15.43;3.00;;;15.50;99.90;;;;;;5093003;28;20104;-71
2023/08/07 01:53:07;;;;;;;12.57;2.60;;;15.40;99.90;;;;;;5093137;28;20123;-71
2023/08/07 01:55:32;;;;;;;11.13;2.87;;;15.40;99.90;;;;;;5093307;28;20047;-72
2023/08/07 01:57:58;;;;;;;10.63;2.93;;;15.40;99.90;;;;;;5091971;28;20094;-71
2023/08/07 02:00:24;;;;;;;12.40;2.43;;;15.40;99.90;;;;;;5091714;28;20055;-71
2023/08/07 02:02:50;;;;;;;12.80;2.70;;;15.40;99.90;;;;;;5092952;28;20136;-71
2023/08/07 02:05:16;;;;;;;11.93;2.80;;;15.40;99.90;;;;;;5093074;28;20502;-71
2023/08/07 02:07:42;;;;;;;10.40;2.63;;;15.40;99.90;;;;;;5092743;28;20040;-71
2023/08/07 02:10:08;;;;;;;13.13;3.33;;;15.30;99.90;;;;;;5093102;28;20048;-71
2023/08/07 02:12:34;;;;;;;13.17;2.90;;;15.30;99.90;;;;;;5075154;28;20052;-72
2023/08/07 02:15:00;;;;;;;12.70;2.80;;;15.30;99.90;;;;;;5092350;28;20468;-71
2023/08/07 02:17:32;;;;;;;9.20;2.77;;;15.30;99.90;;;;;;5092927;28;20040;-71
2023/08/07 02:19:58;;;;;;;8.90;3.20;;;15.20;99.90;;;;;;5092491;28;20506;-71
2023/08/07 02:22:25;;;;;;;11.97;2.90;;;15.20;99.90;;;;;;5092876;28;20044;-71
2023/08/07 02:24:50;;;;;;;9.20;2.57;;;15.20;99.90;;;;;;5092680;28;20040;-71
2023/08/07 02:27:16;;;;;;;12.63;2.77;;;15.20;99.90;;;;;;5092409;28;20094;-71
2023/08/07 02:29:42;;;;;;;8.57;2.80;;;15.20;99.90;;;;;;5092567;28;20044;-71
2023/08/07 02:32:08;;;;;;;12.57;3.23;;;15.20;99.90;;;;;;5092748;28;20126;-71
2023/08/07 02:34:33;;;;;;;12.57;2.53;;;15.20;99.90;;;;;;5092800;28;20048;-71
2023/08/07 02:36:59;;;;;;;9.47;2.30;;;15.10;99.90;;;;;;5092283;28;20033;-71
2023/08/07 02:39:25;;;;;;;11.33;2.37;;;15.10;99.90;;;;;;5091616;28;20055;-71
2023/08/07 02:41:51;;;;;;;13.97;3.50;;;15.10;99.90;;;;;;5092520;28;20044;-71
2023/08/07 02:44:17;;;;;;;12.57;2.90;;;15.10;99.90;;;;;;5092708;28;20036;-71
2023/08/07 02:46:43;;;;;;;11.77;3.00;;;15.10;99.90;;;;;;5092195;28;20062;-72
2023/08/07 02:49:09;;;;;;;11.73;2.80;;;15.10;99.90;;;;;;5092686;28;20051;-71
2023/08/07 02:51:35;;;;;;;14.30;3.07;;;15.10;99.90;;;;;;5095533;28;20036;-71
2023/08/07 02:54:01;;;;;;;15.23;3.20;;;15.20;99.90;;;;;;5096013;28;20297;-71
2023/08/07 02:56:26;;;;;;;11.77;2.60;;;15.20;99.90;;;;;;5096152;28;20039;-71
2023/08/07 02:58:52;;;;;;;11.03;2.90;;;15.20;99.90;;;;;;5095602;28;20081;-71
2023/08/07 03:01:18;;;;;;;12.73;2.90;;;15.20;99.90;;;;;;5094790;28;20043;-71
2023/08/07 03:03:43;;;;;;;19.37;4.60;;;15.30;99.90;;;;;;5094642;28;20110;-72
2023/08/07 03:06:09;;;;;;;16.50;3.33;;;15.30;99.90;;;;;;5095834;28;20040;-73
2023/08/07 03:08:35;;;;;;;14.23;3.60;;;15.40;99.90;;;;;;5095805;28;20052;-73
2023/08/07 03:11:00;;;;;;;15.00;3.53;;;15.40;99.90;;;;;;5095336;28;20048;-73
2023/08/07 03:13:26;;;;;;;7.50;3.43;;;15.40;99.90;;;;;;5095768;28;20051;-72
2023/08/07 03:16:03;;;;;;;14.50;3.27;;;15.40;99.90;;;;;;5095331;28;20052;-73
2023/08/07 03:18:29;;;;;;;16.80;3.17;;;15.40;99.90;;;;;;5095989;28;20070;-75
2023/08/07 03:20:59;;;;;;;12.57;2.43;;;15.40;99.90;;;;;;5094278;28;20490;-74
2023/08/07 03:23:25;;;;;;;8.97;2.47;;;15.30;99.90;;;;;;5095410;28;20554;-73
2023/08/07 03:26:01;;;;;;;9.03;2.53;;;15.20;99.90;;;;;;5095449;28;20072;-73
2023/08/07 03:28:26;;;;;;;8.30;3.40;;;15.20;99.90;;;;;;5095677;28;20052;-73
2023/08/07 03:30:52;;;;;;;12.47;3.10;;;15.20;99.90;;;;;;5095229;28;20040;-73
2023/08/07 03:33:18;;;;;;;12.30;3.60;;;15.20;99.90;;;;;;5095389;28;20039;-73
2023/08/07 03:35:43;;;;;;;14.80;4.07;;;15.20;99.90;;;;;;5094289;28;20040;-73
2023/08/07 03:38:09;;;;;;;11.87;3.77;;;15.20;99.90;;;;;;5095467;28;20035;-72
2023/08/07 03:40:35;;;;;;;15.67;4.23;;;15.20;99.90;;;;;;5095189;28;20040;-72
2023/08/07 03:43:00;;;;;;;19.40;4.73;;;15.20;99.90;;;;;;5095125;28;20050;-72
2023/08/07 03:45:26;;;;;;;15.03;3.70;;;15.20;99.90;;;;;;5095182;28;20111;-72
2023/08/07 03:47:52;;;;;;;16.93;3.83;;;15.20;99.90;;;;;;5094932;28;20032;-72
2023/08/07 03:50:17;;;;;;;24.00;4.53;;;15.20;99.90;;;;;;5095383;28;20044;-71
2023/08/07 03:52:43;;;;;;;19.33;4.40;;;15.20;99.90;;;;;;5093871;28;20050;-71
2023/08/07 03:55:09;;;;;;;13.37;4.03;;;15.20;99.90;;;;;;5094882;28;20040;-71
2023/08/07 03:57:35;;;;;;;19.40;4.20;;;15.20;99.90;;;;;;5094000;28;20511;-71
2023/08/07 04:00:00;;;;;;;18.97;4.90;;;15.10;99.90;;;;;;5094780;28;20069;-71
2023/08/07 04:02:27;;;;;;;17.83;5.20;;;15.10;99.90;;;;;;5093804;28;20047;-71
2023/08/07 04:04:53;;;;;;;18.57;4.63;;;15.10;99.90;;;;;;5094958;28;20494;-71
2023/08/07 04:07:18;;;;;;;18.00;4.40;;;15.10;99.90;;;;;;5095052;28;20036;-71
2023/08/07 04:09:44;;;;;;;19.73;5.17;;;15.10;99.90;;;;;;5094796;28;20464;-71
2023/08/07 04:12:10;;;;;;;16.87;4.47;;;15.00;99.90;;;;;;5094472;28;20044;-71
2023/08/07 04:14:35;;;;;;;16.43;4.00;;;15.00;99.90;;;;;;5094616;28;20040;-71
2023/08/07 04:17:02;;;;;;;13.30;3.67;;;15.00;99.90;;;;;;5094392;28;20353;-71
2023/08/07 04:19:27;;;;;;;11.73;3.43;;;15.00;99.90;;;;;;5094535;28;20102;-71
2023/08/07 04:21:53;;;;;;;13.23;3.93;;;14.90;99.90;;;;;;5094100;28;20518;-72
2023/08/07 04:24:19;;;;;;;13.30;3.20;;;14.90;99.90;;;;;;5094770;28;20047;-72
2023/08/07 04:26:45;;;;;;;13.67;3.57;;;14.90;99.90;;;;;;5094344;28;20055;-72
2023/08/07 04:29:10;;;;;;;17.30;3.23;;;14.90;99.90;;;;;;5094184;28;20044;-72
2023/08/07 04:31:36;;;;;;;24.73;4.27;;;15.00;99.90;;;;;;5092966;28;20063;-73
2023/08/07 04:34:02;;;;;;;17.77;4.23;;;15.00;99.90;;;;;;5094103;28;20088;-72
2023/08/07 04:36:28;;;;;;;19.33;3.47;;;15.00;99.90;;;;;;5094255;28;20138;-72
2023/08/07 04:38:55;;;;;;;15.57;4.30;;;15.00;99.90;;;;;;5094046;28;20036;-73
2023/08/07 04:41:21;;;;;;;16.03;4.10;;;15.00;99.90;;;;;;5094293;28;20054;-72
2023/08/07 04:43:48;;;;;;;15.40;3.77;;;15.00;99.90;;;;;;5094143;28;20032;-72
2023/08/07 04:46:14;;;;;;;19.60;3.50;;;14.90;99.90;;;;;;5093838;28;20468;-72
2023/08/07 04:48:40;;;;;;;18.27;3.60;;;14.90;99.90;;;;;;5094053;28;20051;-71
2023/08/07 04:51:06;;;;;;;13.07;4.17;;;14.90;99.90;;;;;;5093798;28;20149;-71
2023/08/07 04:53:32;;;;;;;18.67;4.30;;;15.00;99.90;;;;;;5093941;28;20079;-71
2023/08/07 04:55:59;;;;;;;17.03;4.70;;;14.90;99.90;;;;;;5093823;28;20108;-71
2023/08/07 04:58:25;;;;;;;23.77;5.17;;;14.90;99.90;;;;;;5092908;28;20043;-71
2023/08/07 05:00:57;;;;;;;17.17;5.03;;;14.90;99.90;;;;;;5093802;28;20044;-72
2023/08/07 05:03:24;;;;;;;18.50;4.90;;;14.90;99.90;;;;;;5094057;28;20098;-71
2023/08/07 05:05:50;;;;;;;19.23;4.80;;;14.90;99.90;;;;;;5093764;28;20040;-71
2023/08/07 05:08:17;;;;;;;18.27;4.93;;;14.90;99.90;;;;;;5093807;28;20044;-71
2023/08/07 05:10:42;;;;;;;23.20;4.90;;;14.90;99.90;;;;;;5093627;28;20130;-71
2023/08/07 05:13:08;;;;;;;19.43;5.43;;;14.90;99.90;;;;;;5092922;28;20086;-71
2023/08/07 05:15:34;;;;;;;17.57;4.50;;;15.00;99.90;;;;;;5093656;28;20046;-70
2023/08/07 05:18:00;;;;;;;17.93;5.00;;;15.00;99.90;;;;;;5093409;28;20040;-71
2023/08/07 05:20:25;;;;;;;18.63;5.00;;;15.00;99.90;;;;;;5093526;28;20138;-71
2023/08/07 05:22:51;;;;;;;13.77;4.43;;;15.00;99.90;;;;;;5093489;28;20044;-70
2023/08/07 05:25:18;;;;;;;19.63;5.50;;;15.10;99.90;;;;;;5091801;28;20537;-70
2023/08/07 05:27:44;;;;;;;18.83;4.77;;;15.20;99.90;;;;;;5093104;28;20150;-70
2023/08/07 05:30:11;;;;;;;14.70;4.17;;;15.30;99.90;;;;;;5093192;28;20097;-70
2023/08/07 05:32:40;;;;;;;14.23;4.27;;;15.30;99.90;;;;;;5093423;28;20485;-70
2023/08/07 05:35:07;;;;;;;15.80;4.10;;;15.40;99.90;;;;;;5092086;28;20140;-70
2023/08/07 05:37:33;;;;;;;13.90;4.13;;;15.40;99.90;;;;;;5093395;28;20071;-70
2023/08/07 05:39:59;;;;;;;14.57;5.03;;;15.30;99.90;;;;;;5093068;28;20464;-70
2023/08/07 05:42:25;;;;;;;14.40;3.93;;;15.40;99.90;;;;;;5093350;28;20054;-70
2023/08/07 05:44:51;;;;;;;18.10;4.90;;;15.30;99.90;;;;;;5092096;28;20530;-70
2023/08/07 05:47:17;;;;;;;16.77;4.17;;;15.20;99.90;;;;;;5092861;28;20040;-70
2023/08/07 05:49:42;;;;;;;18.43;4.40;;;15.10;99.90;;;;;;5093191;28;20040;-70
2023/08/07 05:52:08;;;;;;;17.40;4.50;;;15.10;99.90;;;;;;5093034;28;20047;-70
2023/08/07 05:54:37;;;;;;;14.53;3.90;;;15.10;99.90;;;;;;5093014;28;20051;-70
2023/08/07 05:57:03;;;;;;;21.43;5.17;;;15.00;99.90;;;;;;5091379;28;20127;-71
2023/08/07 05:59:29;;;;;;;18.60;4.70;;;15.00;99.90;;;;;;5093404;28;20075;-71
2023/08/07 06:01:55;;;;;;;15.83;3.80;;;14.90;99.90;;;;;;5093167;28;20087;-71
2023/08/07 06:04:21;;;;;;;19.37;4.53;;;14.90;99.90;;;;;;5092876;28;20492;-71
2023/08/07 06:06:47;;;;;;;18.53;4.87;;;14.90;99.90;;;;;;5092974;28;20074;-71
2023/08/07 06:09:15;;;;;;;15.40;3.87;;;14.90;99.90;;;;;;5092841;28;20048;-71
2023/08/07 06:11:41;;;;;;;15.87;4.33;;;14.90;99.90;;;;;;5091778;28;20061;-70
2023/08/07 06:14:06;;;;;;;14.40;4.23;;;15.00;99.90;;;;;;5092846;28;20036;-71
2023/08/07 06:16:32;;;;;;;19.07;5.00;;;15.00;99.90;;;;;;5092979;28;20040;-71
2023/08/07 06:18:58;;;;;;;14.90;4.40;;;15.00;99.90;;;;;;5092941;28;20079;-70
2023/08/07 06:21:24;;;;;;;22.10;4.93;;;15.00;99.90;;;;;;5092588;28;20123;-70
2023/08/07 06:23:50;;;;;;;15.07;4.37;;;15.10;99.90;;;;;;5093130;28;20039;-70
2023/08/07 06:26:16;;;;;;;18.93;4.50;;;15.10;99.90;;;;;;5095160;28;20480;-70
2023/08/07 06:28:42;;;;;;;14.07;4.73;;;15.10;99.90;;;;;;5096805;28;20135;-70
2023/08/07 06:31:11;;;;;;;13.80;3.70;;;15.10;99.90;;;;;;5096490;28;20086;-70
2023/08/07 06:33:37;;;;;;;16.33;3.93;;;15.10;99.90;;;;;;5096637;28;20044;-70
2023/08/07 06:36:03;;;;;;;13.03;3.07;;;15.10;99.90;;;;;;5095189;28;20090;-70
2023/08/07 06:38:30;;;;;;;12.93;3.20;;;15.10;99.90;;;;;;5096607;28;20036;-70
2023/08/07 06:40:56;;;;;;;10.63;3.07;;;15.20;99.90;;;;;;5096486;28;20477;-70
2023/08/07 06:43:22;;;;;;;18.07;3.43;;;15.40;99.90;;;;;;5096236;28;20047;-70
2023/08/07 06:45:50;;;;;;;9.93;2.90;;;15.50;99.90;;;;;;5096316;28;20414;-69
2023/08/07 06:48:16;;;;;;;10.07;3.40;;;15.60;99.90;;;;;;5096106;28;20036;-70
2023/08/07 06:50:41;;;;;;;12.37;3.53;;;15.60;99.90;;;;;;5096469;28;20048;-70
2023/08/07 06:53:07;;;;;;;11.80;3.60;;;15.50;99.90;;;;;;5096001;28;20044;-70
2023/08/07 06:55:33;;;;;;;8.90;3.17;;;15.40;99.90;;;;;;5096544;28;20043;-70
2023/08/07 06:57:59;;;;;;;9.07;2.63;;;15.30;99.90;;;;;;5096300;28;20496;-69
2023/08/07 07:00:25;;;;;;;9.87;2.77;;;15.30;99.90;;;;;;5096325;28;20063;-70
2023/08/07 07:02:51;;;;;;;11.10;3.53;;;15.40;99.90;;;;;;5096059;28;20043;-70
2023/08/07 07:05:16;;;;;;;11.30;3.10;;;15.70;99.90;;;;;;5095814;28;20036;-70
2023/08/07 07:07:42;;;;;;;9.50;2.87;;;16.60;99.90;;;;;;5094729;28;20040;-70
2023/08/07 07:10:08;;;;;;;9.60;2.40;;;17.70;99.90;;;;;;5095728;28;20044;-70
2023/08/07 07:12:34;;;;;;;9.13;2.57;;;17.90;99.90;;;;;;5095903;28;20039;-70
2023/08/07 07:14:59;;;;;;;9.03;2.73;;;17.60;99.90;;;;;;5095881;28;20036;-71
2023/08/07 07:17:25;;;;;;;10.07;2.50;;;17.20;99.90;;;;;;5095337;28;20101;-71
2023/08/07 07:19:51;;;;;;;10.70;3.40;;;16.80;99.90;;;;;;5095704;28;20040;-71
2023/08/07 07:22:16;;;;;;;10.60;3.00;;;16.40;99.90;;;;;;5095589;28;20036;-70
2023/08/07 07:24:42;;;;;;;10.83;3.70;;;16.10;99.90;;;;;;5095840;28;20388;-70
2023/08/07 07:27:08;;;;;;;12.87;3.23;;;15.90;99.90;;;;;;5095295;28;20074;-70
2023/08/07 07:29:34;;;;;;;12.00;3.43;;;15.80;99.90;;;;;;5095516;28;20098;-70
2023/08/07 07:31:59;;;;;;;8.60;2.87;;;16.50;99.90;;;;;;5095521;28;20043;-69
2023/08/07 07:34:25;;;;;;;14.60;3.87;;;18.20;99.90;;;;;;5095267;28;20050;-70
2023/08/07 07:36:51;;;;;;;10.40;3.20;;;20.00;99.90;;;;;;5094904;28;20037;-70
2023/08/07 07:39:17;;;;;;;9.50;2.93;;;21.60;99.90;;;;;;5095160;28;20036;-70
2023/08/07 07:41:43;;;;;;;8.50;3.03;;;22.80;99.90;;;;;;5095313;28;20452;-71
2023/08/07 07:44:08;;;;;;;10.13;2.60;;;23.90;99.90;;;;;;5095322;28;20051;-71
2023/08/07 07:46:34;;;;;;;9.33;2.40;;;23.80;99.90;;;;;;5094956;28;20071;-71
2023/08/07 07:49:00;;;;;;;8.33;2.90;;;22.50;99.90;;;;;;5095281;28;20047;-70
2023/08/07 07:51:26;;;;;;;10.03;3.30;;;21.00;99.90;;;;;;5094952;28;20070;-71
2023/08/07 07:53:52;;;;;;;7.03;2.83;;;19.80;99.90;;;;;;5095095;28;20460;-71
2023/08/07 07:56:18;;;;;;;9.83;3.33;;;18.90;99.90;;;;;;5094837;28;20036;-70
2023/08/07 07:58:44;;;;;;;8.47;3.43;;;18.30;99.90;;;;;;5094661;28;20044;-70
2023/08/07 08:01:10;;;;;;;9.00;3.03;;;17.80;99.90;;;;;;5095075;28;20133;-70
2023/08/07 08:03:36;;;;;;;10.30;3.40;;;17.50;99.90;;;;;;5094705;28;20123;-70
2023/08/07 08:06:01;;;;;;;8.77;3.10;;;17.40;99.90;;;;;;5095012;28;20047;-70
2023/08/07 08:08:27;;;;;;;12.87;3.53;;;17.30;99.90;;;;;;5093070;28;20036;-70
2023/08/07 08:10:53;;;;;;;11.97;3.30;;;17.40;99.90;;;;;;5094704;28;20050;-70
2023/08/07 08:13:19;;;;;;;16.50;3.97;;;17.60;99.90;;;;;;5094482;28;20123;-70
2023/08/07 08:15:45;;;;;;;10.10;3.30;;;17.90;99.90;;;;;;5093749;28;20395;-70
2023/08/07 08:18:11;;;;;;;11.07;3.53;;;17.90;99.90;;;;;;5094313;28;20539;-70
2023/08/07 08:20:38;;;;;;;10.30;2.80;;;18.00;99.90;;;;;;5094336;28;20036;-70
2023/08/07 08:23:04;;;;;;;11.40;3.53;;;18.00;99.90;;;;;;5094740;28;20119;-70
2023/08/07 08:25:32;;;;;;;9.77;4.00;;;18.00;99.90;;;;;;5094176;28;20086;-70
2023/08/07 08:27:58;;;;;;;18.63;4.17;;;17.90;99.90;;;;;;5092677;28;20142;-70
2023/08/07 08:30:24;;;;;;;13.97;3.70;;;17.80;99.90;;;;;;5094162;28;20122;-70
2023/08/07 08:32:49;;;;;;;11.43;3.33;;;17.90;99.90;;;;;;5093966;28;20131;-70
2023/08/07 08:35:15;;;;;;;11.77;2.93;;;18.10;99.90;;;;;;5094104;28;20040;-70
2023/08/07 08:37:41;;;;;;;10.13;3.27;;;18.10;99.90;;;;;;5093323;28;20143;-70
2023/08/07 08:40:11;;;;;;;12.43;3.30;;;18.10;99.90;;;;;;5093158;28;20036;-70
2023/08/07 08:42:40;;;;;;;11.97;2.90;;;18.10;99.90;;;;;;5093766;28;20472;-70
2023/08/07 08:45:10;;;;;;;10.63;3.37;;;18.00;99.90;;;;;;5093142;28;20119;-70
2023/08/07 08:47:37;;;;;;;11.67;2.87;;;18.10;99.90;;;;;;5093171;28;20052;-70
2023/08/07 08:50:14;;;;;;;8.60;3.20;;;18.00;99.90;;;;;;5093038;28;20048;-69
2023/08/07 08:52:44;;;;;;;8.77;2.50;;;18.10;99.90;;;;;;5093837;28;20058;-69
2023/08/07 08:55:11;;;;;;;12.30;3.23;;;18.00;99.90;;;;;;5093924;28;20043;-69
2023/08/07 08:57:39;;;;;;;9.77;2.90;;;18.00;99.90;;;;;;5093701;28;20132;-69
2023/08/07 09:00:13;;;;;;;8.27;3.10;;;18.10;99.90;;;;;;5094013;28;20044;-69
2023/08/07 09:02:38;;;;;;;7.43;2.93;;;18.10;99.90;;;;;;5093718;28;20048;-69
2023/08/07 09:05:05;;;;;;;7.17;2.97;;;18.20;99.90;;;;;;5093822;28;20280;-69
2023/08/07 09:07:30;;;;;;;7.43;2.73;;;18.20;99.90;;;;;;5093611;28;20039;-69
2023/08/07 09:09:57;;;;;;;7.90;2.10;;;18.20;99.90;;;;;;5093833;28;20044;-69
2023/08/07 09:12:26;;;;;;;9.37;2.97;;;18.30;99.90;;;;;;5093538;28;20117;-70
2023/08/07 09:15:00;;;;;;;10.53;2.70;;;18.30;99.90;;;;;;5093686;28;20043;-69
2023/08/07 09:17:31;;;;;;;9.50;2.83;;;18.30;99.90;;;;;;5093350;28;20094;-69
2023/08/07 09:19:57;;;;;;;10.23;3.50;;;18.50;99.90;;;;;;5093718;28;20044;-69
2023/08/07 09:22:23;;;;;;;7.43;2.57;;;18.60;99.90;;;;;;5093311;28;20040;-69
2023/08/07 09:24:50;;;;;;;14.17;3.03;;;18.50;99.90;;;;;;5093714;28;20097;-69
2023/08/07 09:27:15;;;;;;;12.33;3.30;;;18.50;99.90;;;;;;5093250;28;20101;-69
2023/08/07 09:29:42;;;;;;;9.00;2.80;;;18.40;99.90;;;;;;5093216;28;20123;-69
2023/08/07 09:32:14;;;;;;;10.90;2.93;;;18.20;99.90;;;;;;5093455;28;20050;-69
2023/08/07 09:34:40;;;;;;;10.90;3.03;;;18.10;99.90;;;;;;5093085;28;20118;-69
2023/08/07 09:37:08;;;;;;;10.83;3.43;;;18.10;99.90;;;;;;5093340;28;20075;-69
2023/08/07 09:39:37;;;;;;;5.60;2.30;;;18.10;99.90;;;;;;5093096;28;20487;-69
2023/08/07 09:42:04;;;;;;;8.73;2.60;;;18.10;99.90;;;;;;5093247;28;20043;-69
2023/08/07 09:44:37;;;;;;;9.73;2.43;;;18.10;99.90;;;;;;5093067;28;20119;-69
2023/08/07 09:47:16;;;;;;;9.47;2.90;;;18.10;99.90;;;;;;5093195;28;20164;-69
2023/08/07 09:49:43;;;;;;;9.87;2.60;;;18.20;99.90;;;;;;5093023;28;20044;-69
2023/08/07 09:52:10;;;;;;;12.07;3.33;;;18.30;99.90;;;;;;5093206;28;20113;-69
2023/08/07 09:54:37;;;;;;;12.43;3.07;;;18.30;99.90;;;;;;5092965;28;20387;-69
2023/08/07 09:57:04;;;;;;;12.07;2.70;;;18.20;99.90;;;;;;5093148;28;20071;-69
2023/08/07 09:59:32;;;;;;;9.07;2.40;;;18.10;99.90;;;;;;5094335;28;20051;-70
2023/08/07 10:01:59;;;;;;;10.40;2.63;;;18.00;99.90;;;;;;5097225;28;20044;-70
2023/08/07 10:04:26;;;;;;;12.40;3.13;;;18.00;99.90;;;;;;5095898;28;20100;-70
2023/08/07 10:06:52;;;;;;;10.33;3.33;;;18.00;99.90;;;;;;5097276;28;20075;-70
2023/08/07 10:09:18;;;;;;;10.77;3.93;;;18.00;99.90;;;;;;5097020;28;20043;-70
2023/08/07 10:11:44;;;;;;;10.73;2.90;;;18.10;99.90;;;;;;5096549;28;20079;-70
2023/08/07 10:14:10;;;;;;;14.33;3.20;;;18.00;99.90;;;;;;5097291;28;20051;-69
2023/08/07 10:16:39;;;;;;;8.90;2.97;;;18.10;99.90;;;;;;5096828;28;20048;-71
2023/08/07 10:19:08;;;;;;;7.77;2.77;;;18.10;99.90;;;;;;5096957;28;20455;-70
2023/08/07 10:21:37;;;;;;;10.27;3.00;;;18.00;99.90;;;;;;5096697;28;20140;-71
2023/08/07 10:24:08;;;;;;;7.80;2.90;;;18.00;99.90;;;;;;5095907;28;20378;-71
2023/08/07 10:26:35;;;;;;;8.43;2.70;;;17.90;99.90;;;;;;5096155;28;20050;-71
2023/08/07 10:29:04;;;;;;;9.33;3.23;;;17.90;99.90;;;;;;5096734;28;20059;-71
2023/08/07 10:31:31;;;;;;;11.43;2.60;;;18.00;99.90;;;;;;5078297;28;20491;-71
2023/08/07 10:33:58;;;;;;;9.90;3.10;;;18.00;99.90;;;;;;5096656;28;20032;-71
2023/08/07 10:36:31;;;;;;;6.93;2.77;;;18.10;99.90;;;;;;5096672;28;20126;-70
2023/08/07 10:39:08;;;;;;;8.43;2.83;;;18.10;99.90;;;;;;5096570;28;20035;-71
2023/08/07 10:41:46;;;;;;;9.33;2.27;;;18.00;99.90;;;;;;5096388;28;20040;-70
2023/08/07 10:44:26;;;;;;;6.70;2.50;;;18.10;99.90;;;;;;5096748;28;20051;-70
2023/08/07 10:46:54;;;;;;;7.47;2.50;;;18.10;99.90;;;;;;5096212;28;20063;-71
2023/08/07 10:49:41;;;;;;;7.57;2.20;;;18.10;99.90;;;;;;5095081;28;20036;-70
2023/08/07 10:52:14;;;;;;;5.90;2.00;;;18.10;99.90;;;;;;5096309;28;20047;-70
2023/08/07 10:54:50;;;;;;;8.23;2.50;;;18.20;99.90;;;;;;5096145;28;20052;-71
2023/08/07 10:57:18;;;;;;;7.40;2.23;;;18.30;99.90;;;;;;5096410;28;20141;-71
2023/08/07 10:59:56;;;;;;;7.93;2.33;;;18.40;99.90;;;;;;5096077;28;20044;-71
2023/08/07 11:02:27;;;;;;;6.30;2.17;;;18.60;99.90;;;;;;5096641;28;20039;-70
2023/08/07 11:04:53;;;;;;;8.80;2.13;;;18.60;99.90;;;;;;5095031;28;20528;-70
2023/08/07 11:07:27;;;;;;;8.40;2.50;;;18.70;99.90;;;;;;5096025;28;20071;-70
2023/08/07 11:09:54;;;;;;;4.57;2.33;;;18.80;99.90;;;;;;5094410;28;20043;-71
2023/08/07 11:12:20;;;;;;;6.93;2.13;;;18.90;99.90;;;;;;5095224;28;20122;-70
2023/08/07 11:14:46;;;;;;;7.27;2.50;;;19.00;99.90;;;;;;5094516;28;20051;-71
2023/08/07 11:17:13;;;;;;;11.00;2.43;;;18.90;99.90;;;;;;5095801;28;20540;-71
2023/08/07 11:19:39;;;;;;;6.60;2.40;;;19.00;99.90;;;;;;5095637;28;20043;-71
2023/08/07 11:22:05;;;;;;;8.70;2.43;;;19.10;99.90;;;;;;5096084;28;20071;-71
2023/08/07 11:24:31;;;;;;;8.63;2.53;;;19.20;99.90;;;;;;5095738;28;20044;-71
2023/08/07 11:26:58;;;;;;;9.60;2.27;;;19.20;99.90;;;;;;5095172;28;20577;-71
2023/08/07 11:29:24;;;;;;;9.77;2.73;;;19.20;99.90;;;;;;5095546;28;20044;-70
2023/08/07 11:31:51;;;;;;;10.03;2.73;;;19.30;99.90;;;;;;5095349;28;20051;-71
2023/08/07 11:34:18;;;;;;;8.30;2.40;;;19.20;99.90;;;;;;5082411;28;20189;-68
2023/08/07 11:36:44;;;;;;;12.67;2.90;;;19.20;99.90;;;;;;5075042;28;20040;-71
2023/08/07 11:39:11;;;;;;;7.13;2.53;;;19.20;99.90;;;;;;5075135;28;20170;-70
2023/08/07 11:41:37;;;;;;;10.17;3.07;;;19.20;99.90;;;;;;5074864;28;20051;-71
2023/08/07 11:44:03;;;;;;;8.47;3.27;;;19.20;99.90;;;;;;5075084;28;20048;-70
2023/08/07 11:46:29;;;;;;;10.30;2.90;;;19.20;99.90;;;;;;5074874;28;20120;-71
2023/08/07 11:48:56;;;;;;;8.03;2.80;;;19.20;99.90;;;;;;5074812;28;20047;-68
2023/08/07 11:51:22;;;;;;;14.33;3.10;;;19.10;99.90;;;;;;5074835;28;20055;-69
2023/08/07 11:53:48;;;;;;;10.57;3.33;;;18.80;99.90;;;;;;5074726;28;20133;-68
2023/08/07 11:56:14;;;;;;;7.17;3.10;;;18.60;99.90;;;;;;5074821;28;20051;-69
2023/08/07 11:58:42;;;;;;;8.43;2.63;;;18.30;99.90;;;;;;5074604;28;20040;-69
2023/08/07 12:01:22;;;;;;;7.83;2.37;;;18.20;99.90;;;;;;5074665;28;20043;-70
2023/08/07 12:03:56;;;;;;;9.67;3.10;;;18.10;99.90;;;;;;5074417;28;20044;-69
2023/08/07 12:06:26;;;;;;;9.43;2.90;;;18.00;99.90;;;;;;5074750;28;20106;-69
2023/08/07 12:08:56;;;;;;;7.73;2.57;;;18.00;99.90;;;;;;5074332;28;20032;-69
2023/08/07 12:11:23;;;;;;;12.10;3.53;;;18.00;99.90;;;;;;5073329;28;20045;-69
2023/08/07 12:13:49;;;;;;;8.13;2.60;;;18.10;99.90;;;;;;5073039;28;20040;-69
2023/08/07 12:16:16;;;;;;;8.40;2.50;;;18.30;99.90;;;;;;5074347;28;20044;-69
2023/08/07 12:18:50;;;;;;;6.83;2.13;;;18.40;99.90;;;;;;5074138;28;20079;-69
2023/08/07 12:21:25;;;;;;;6.27;2.87;;;18.40;99.90;;;;;;5074347;28;20055;-69
2023/08/07 12:23:51;;;;;;;7.07;3.10;;;18.40;99.90;;;;;;5073977;28;20124;-69
2023/08/07 12:26:18;;;;;;;11.30;2.80;;;18.40;99.90;;;;;;5074144;28;20033;-69
2023/08/07 12:28:43;;;;;;;5.77;2.83;;;18.40;99.90;;;;;;5055715;28;20051;-69
2023/08/07 12:31:09;;;;;;;7.50;2.20;;;18.40;99.90;;;;;;5074027;28;20044;-69
2023/08/07 12:33:35;;;;;;;8.60;2.50;;;18.40;99.90;;;;;;5072957;28;20098;-69
2023/08/07 12:36:02;;;;;;;9.03;3.10;;;18.40;99.90;;;;;;5072246;28;20052;-69
2023/08/07 12:38:28;;;;;;;4.90;2.27;;;18.50;99.90;;;;;;5073948;28;20036;-69
2023/08/07 12:40:54;;;;;;;8.70;3.13;;;18.60;99.90;;;;;;5073731;28;20036;-69